createdAt,value
2018-03-20T10:25:10.314Z,27.40
2018-03-20T10:27:44.886Z,27.10
2018-03-20T10:30:19.871Z,26.90
2018-03-20T10:32:54.347Z,26.00
2018-03-20T10:35:29.274Z,25.50
2018-03-20T10:38:03.928Z,25.50
2018-03-20T10:40:38.566Z,25.40
2018-03-20T10:43:13.166Z,25.60
2018-03-20T10:45:47.822Z,25.60
2018-03-20T10:48:23.821Z,25.60
2018-03-20T10:50:58.394Z,25.40
2018-03-20T10:53:34.570Z,25.40
2018-03-20T10:56:10.043Z,25.50
2018-03-20T10:58:44.838Z,25.40
2018-03-20T11:01:25.917Z,25.60
2018-03-20T11:04:00.829Z,25.40
2018-03-20T11:06:35.677Z,25.50
2018-03-20T11:09:10.397Z,25.60
2018-03-20T11:11:45.625Z,25.60
2018-03-20T11:14:21.157Z,25.60
2018-03-20T11:16:55.921Z,25.70
2018-03-20T11:19:30.675Z,25.90
2018-03-20T11:22:05.473Z,25.90
2018-03-20T11:24:40.164Z,25.80
2018-03-20T11:27:15.032Z,25.90
2018-03-20T11:29:49.822Z,26.10
2018-03-20T11:32:24.799Z,26.20
2018-03-20T11:35:00.238Z,26.60
2018-03-20T11:37:35.086Z,26.60
2018-03-20T11:40:09.723Z,26.40
2018-03-20T11:42:44.288Z,26.50
2018-03-20T11:45:18.970Z,26.90
2018-03-20T11:47:53.952Z,26.90
2018-03-20T11:50:28.603Z,27.20
2018-03-20T11:53:04.312Z,26.90
2018-03-20T11:55:38.953Z,26.90
2018-03-20T11:58:13.504Z,27.10
2018-03-20T12:00:47.989Z,27.30
2018-03-20T12:03:22.754Z,26.90
2018-03-20T12:05:57.484Z,26.80
2018-03-20T12:08:43.949Z,26.70
2018-03-20T12:11:21.043Z,26.30
2018-03-20T12:13:55.993Z,26.30
2018-03-20T12:16:30.711Z,26.30
2018-03-20T12:19:06.297Z,26.50
2018-03-20T12:21:41.986Z,26.70
2018-03-20T12:24:16.650Z,26.70
2018-03-20T12:26:51.480Z,26.80
2018-03-20T12:29:26.418Z,26.70
2018-03-20T12:32:01.195Z,26.70
2018-03-20T12:34:35.765Z,26.40
2018-03-20T12:37:10.389Z,26.70
2018-03-20T12:39:44.907Z,27.10
2018-03-20T12:42:19.946Z,27.20
2018-03-20T12:44:54.562Z,27.10
2018-03-20T12:47:29.188Z,27.10
2018-03-20T12:50:04.114Z,26.70
2018-03-20T12:52:38.755Z,26.60
2018-03-20T12:55:13.490Z,27.10
2018-03-20T12:57:48.838Z,27.30
2018-03-20T13:00:23.404Z,27.40
2018-03-20T13:02:58.696Z,27.20
2018-03-20T13:05:33.832Z,27.40
2018-03-20T13:08:09.090Z,27.50
2018-03-20T13:10:43.638Z,27.50
2018-03-20T13:13:18.391Z,27.50
2018-03-20T13:15:53.042Z,27.40
2018-03-20T13:18:27.686Z,27.10
2018-03-20T13:21:03.297Z,27.10
2018-03-20T13:23:38.041Z,27.10
2018-03-20T13:26:12.986Z,27.10
2018-03-20T13:28:48.018Z,27.20
2018-03-20T13:31:22.805Z,27.20
2018-03-20T13:33:57.560Z,27.20
2018-03-20T13:36:33.111Z,27.10
2018-03-20T13:39:07.758Z,27.00
2018-03-20T13:41:42.464Z,26.80
2018-03-20T13:44:17.099Z,26.60
2018-03-20T13:46:52.391Z,26.60
2018-03-20T13:49:26.896Z,26.50
2018-03-20T13:52:01.681Z,26.50
2018-03-20T13:54:36.524Z,26.10
2018-03-20T13:57:11.131Z,26.20
2018-03-20T13:59:45.770Z,26.30
2018-03-20T14:02:20.246Z,26.40
2018-03-20T14:04:54.907Z,26.30
2018-03-20T14:07:29.779Z,26.00
2018-03-20T14:10:06.723Z,26.30
2018-03-20T14:12:42.792Z,26.20
2018-03-20T14:15:18.644Z,26.20
2018-03-20T14:17:53.490Z,26.20
2018-03-20T14:20:28.588Z,26.20
2018-03-20T14:23:04.144Z,26.40
2018-03-20T14:25:40.099Z,26.30
2018-03-20T14:28:15.657Z,33.10
2018-03-20T14:30:51.006Z,35.90
2018-03-20T14:33:25.866Z,35.60
2018-03-20T14:36:00.451Z,36.40
2018-03-20T14:38:36.004Z,36.60
2018-03-20T14:41:10.865Z,36.50
2018-03-20T14:43:45.510Z,36.60
2018-03-20T14:46:20.299Z,36.60
2018-03-20T14:48:56.481Z,36.70
2018-03-20T14:51:31.138Z,36.70
2018-03-20T14:54:06.614Z,36.70
2018-03-20T14:56:41.356Z,36.70
2018-03-20T14:59:15.954Z,36.80
2018-03-20T15:01:50.801Z,36.70
2018-03-20T15:04:25.580Z,36.70
2018-03-20T15:07:00.263Z,36.70
2018-03-20T15:09:34.974Z,36.80
2018-03-20T15:12:11.747Z,36.90
2018-03-20T15:14:46.421Z,36.90
2018-03-20T15:17:21.919Z,36.90
2018-03-20T15:19:57.793Z,36.80
2018-03-20T15:22:32.297Z,36.80
2018-03-20T15:25:06.868Z,36.80
2018-03-20T15:27:41.398Z,36.80
2018-03-20T15:30:15.902Z,36.70
2018-03-20T15:32:50.822Z,36.70
2018-03-20T15:35:25.526Z,36.70
2018-03-20T15:38:00.425Z,36.80
2018-03-20T15:40:35.104Z,36.90
2018-03-20T15:43:10.115Z,37.00
2018-03-20T15:45:45.666Z,40.40
2018-03-20T15:48:20.203Z,40.20
2018-03-20T15:50:55.416Z,41.90
2018-03-20T15:53:30.258Z,41.60
2018-03-20T15:56:04.827Z,41.80
2018-03-20T15:58:39.480Z,41.80
2018-03-20T16:01:14.232Z,42.20
2018-03-20T16:03:49.868Z,43.00
2018-03-20T16:06:24.655Z,43.00
2018-03-20T16:08:59.333Z,43.20
2018-03-20T16:11:33.860Z,43.10
2018-03-20T16:14:08.586Z,43.60
2018-03-20T16:16:44.317Z,43.30
2018-03-20T16:19:18.929Z,43.30
2018-03-20T16:21:53.530Z,42.70
2018-03-20T16:24:28.193Z,42.60
2018-03-20T16:27:02.834Z,42.70
2018-03-20T16:29:37.366Z,42.50
2018-03-20T16:32:11.891Z,42.70
2018-03-20T16:34:47.086Z,40.70
2018-03-20T16:37:21.744Z,37.40
2018-03-20T16:39:57.058Z,36.60
